Gorin, Russia
Current Conditions -  °F | °C
As of 7:30 PM on Thursday 27 Nov 2014 (Local Time) from UHHH Reporting Station
Clear Clear  
Wind Chill:   Ceiling: Unl
Heat Index: 19°   Visibility: 6mi
Dew Point:   Wind: 20mph
Humidity: 58%   Direction: 250°WSW
Pressure: 30.18"   Gusts: NA
Location:  51.2°N, 136.67°E
Report Text: UHHH 270930Z 25009MPS CAVOK M07/M14 Q1022 NOSIG RMK QFE760/101323090060
Loading
Personal Weather Stations






























Interactive Weather Map New forecast layout! Learn more

10-Day Weather Forecast

Advertisements
Track Severe Weather on mobile